CCGS Limnos — CG2350 — position and weather

sailwx.info

Track history (hours):
 
Tides and Currents Weather Stations Pressure Air Temp Water Temp Dewpoint Dewpoint Depression Visibility Wind Speed Wind Dir Waves Ship Positions

Oceanographic research ship CCGS Limnos (Canada)

Detailed information on ship capabilities available from University of Delaware's Ocean Information Center.

Last reported at 2019-Aug-14 09:19 UTC. Time now 2019-Aug-24 08:50 UTC.
Position N 41°55' W 082°43'.
Warning: this ship's position is 9 days out of date.

Length 44.81 m; beam 9.75 m; draft 2.6 m.

Type: SAR. MMSI: 316001434.

Date/timePositionNaut miles runAvg speedWind from/ knotsBaromVisibWave heightAir tempDewpointWater temp
2019-Aug-14 09:19N 41°55' W 082°43'2 0.5
2019-Aug-14 05:10N 41°54' W 082°46'0 0.2
2019-Aug-14 04:59N 41°54' W 082°46'20 0.6
2019-Aug-12 21:10N 41°58' W 083°13'  
2019-Aug-09 16:32N 42°05' W 083°07'2 0.7
2019-Aug-09 13:16N 42°08' W 083°07'310.2
2019-Aug-09 13:00N 42°10' W 083°08'1 2.1
2019-Aug-09 12:30N 42°11' W 083°09'3 4.8
2019-Aug-09 11:51N 42°08' W 083°11'1 3.5
2019-Aug-09 11:30N 42°09' W 083°10'3 7.0
2019-Aug-09 11:01N 42°12' W 083°09'1 2.9
2019-Aug-09 10:31N 42°14' W 083°09'3 5.0
2019-Aug-09 10:01N 42°16' W 083°07'0 0.0
2019-Aug-09 09:30N 42°16' W 083°07'0 0.0
2019-Aug-09 09:00N 42°16' W 083°07'0 0.0
2019-Aug-09 08:30N 42°16' W 083°07'0 0.0
2019-Aug-09 07:54N 42°16' W 083°07'0 0.0
2019-Aug-09 07:30N 42°16' W 083°07'0 0.0
2019-Aug-09 06:54N 42°16' W 083°07'0 0.0
2019-Aug-09 06:24N 42°16' W 083°07'0 0.0
2019-Aug-09 05:54N 42°16' W 083°07'0 0.0
2019-Aug-09 05:24N 42°16' W 083°07'0 0.0
2019-Aug-09 04:54N 42°16' W 083°07'0 0.0
2019-Aug-09 04:30N 42°16' W 083°07'0 0.0
2019-Aug-09 04:00N 42°16' W 083°07'0 0.0
2019-Aug-09 03:24N 42°16' W 083°07'0 0.0
2019-Aug-09 03:00N 42°16' W 083°07'0 0.0
2019-Aug-09 02:00N 42°16' W 083°07'0 0.0
2019-Aug-09 01:30N 42°16' W 083°07'0 0.0
2019-Aug-09 01:00N 42°16' W 083°07'0 0.0
2019-Aug-09 00:30N 42°16' W 083°07'0 0.0
2019-Aug-09 00:00N 42°16' W 083°07'0 0.0
2019-Aug-08 23:30N 42°16' W 083°07'1 2.3
2019-Aug-08 23:00N 42°17' W 083°06'5 9.8
2019-Aug-08 22:30N 42°20' W 083°01'610.1
2019-Aug-08 21:57N 42°22' W 082°54'8 9.2
2019-Aug-08 21:04N 42°27' W 082°46'1 9.0
2019-Aug-08 20:55N 42°28' W 082°45'2 0.2
2019-Aug-08 06:24N 42°30' W 082°42'3 0.5
2019-Aug-08 00:54N 42°28' W 082°45'4 9.2
2019-Aug-08 00:30N 42°26' W 082°49'5 9.0
2019-Aug-07 23:59N 42°22' W 082°53'4 8.2
2019-Aug-07 23:30N 42°20' W 082°58'4 7.4
2019-Aug-07 23:00N 42°19' W 083°02'0 0.0
2019-Aug-07 22:26N 42°19' W 083°02'0 0.0
2019-Aug-07 21:56N 42°19' W 083°02'0 0.0
2019-Aug-07 21:26N 42°19' W 083°02'0 0.0
2019-Aug-07 20:44N 42°19' W 083°02'0 0.0
2019-Aug-07 20:26N 42°19' W 083°02'0 0.0
2019-Aug-07 19:56N 42°19' W 083°02'0 0.0
2019-Aug-07 19:20N 42°19' W 083°02'0 0.0
2019-Aug-07 18:56N 42°19' W 083°02'0 0.0
2019-Aug-07 18:26N 42°19' W 083°02'0 0.0
2019-Aug-07 17:56N 42°19' W 083°02'0 0.0
2019-Aug-07 17:26N 42°19' W 083°02'0 0.0
2019-Aug-07 16:56N 42°19' W 083°02'0 0.0
2019-Aug-07 16:29N 42°19' W 083°02'0 0.0
2019-Aug-07 15:59N 42°19' W 083°02'0 0.0
2019-Aug-07 15:20N 42°19' W 083°02'0 0.0
2019-Aug-07 14:56N 42°19' W 083°02'0 0.0
2019-Aug-07 14:26N 42°19' W 083°02'0 0.0
2019-Aug-07 13:56N 42°19' W 083°02'0 0.0
2019-Aug-07 13:29N 42°19' W 083°02'0 0.0
2019-Aug-07 12:56N 42°19' W 083°02'0 0.0
2019-Aug-07 12:26N 42°19' W 083°02'0 0.0
2019-Aug-07 11:56N 42°19' W 083°02'0 0.0
2019-Aug-07 11:23N 42°19' W 083°02'0 0.0
2019-Aug-07 10:59N 42°19' W 083°02'0 0.0
2019-Aug-07 10:26N 42°19' W 083°02'0 0.0
2019-Aug-07 09:56N 42°19' W 083°02'0 0.0
2019-Aug-07 09:26N 42°19' W 083°02'0 0.0
2019-Aug-07 08:44N 42°19' W 083°02'0 0.0
2019-Aug-07 08:26N 42°19' W 083°02'0 0.0
2019-Aug-07 07:59N 42°19' W 083°02'0 0.0
2019-Aug-07 07:26N 42°19' W 083°02'0 0.0
2019-Aug-07 06:56N 42°19' W 083°02'0 0.0
2019-Aug-07 06:26N 42°19' W 083°02'0 0.0
2019-Aug-07 05:53N 42°19' W 083°02'0 0.0
2019-Aug-07 05:20N 42°19' W 083°02'0 0.0
2019-Aug-07 04:47N 42°19' W 083°02'0 0.0
2019-Aug-07 04:26N 42°19' W 083°02'0 0.0
2019-Aug-07 03:56N 42°19' W 083°02'0 0.0
2019-Aug-07 03:29N 42°19' W 083°02'0 0.0
2019-Aug-07 02:59N 42°19' W 083°02'0 0.0
2019-Aug-07 02:26N 42°19' W 083°02'0 0.0
2019-Aug-07 02:01N 42°19' W 083°02'4 7.9
2019-Aug-07 01:30N 42°20' W 082°57'510.1
2019-Aug-07 00:59N 42°24' W 082°52'5 9.3
2019-Aug-07 00:29N 42°27' W 082°47'4 7.6
2019-Aug-06 23:59N 42°29' W 082°43'8 6.9
2019-Aug-06 22:51N 42°23' W 082°49'2 4.9
2019-Aug-06 22:30N 42°22' W 082°51'2 3.1
2019-Aug-06 22:00N 42°22' W 082°53'4 7.3
2019-Aug-06 21:30N 42°20' W 082°58'4 7.5
2019-Aug-06 21:00N 42°19' W 083°03'3 6.9
2019-Aug-06 20:30N 42°17' W 083°06'4 7.3
2019-Aug-06 20:00N 42°14' W 083°08'4 7.4
2019-Aug-06 19:30N 42°10' W 083°08'53 4.7
2019-Aug-06 08:03N 41°57' W 081°58'19 8.6
2019-Aug-06 05:48N 42°04' W 081°34'  
Track history (hours):
 
Tides and Currents Weather Stations Pressure Air Temp Water Temp Dewpoint Dewpoint Depression Visibility Wind Speed Wind Dir Waves Ship Positions

Oceanographic research ship CCGS Limnos (Canada)

Detailed information on ship capabilities available from University of Delaware's Ocean Information Center.

Last reported at 2019-Aug-14 09:19 UTC. Time now 2019-Aug-24 08:50 UTC.
Position N 41°55' W 082°43'.
Warning: this ship's position is 9 days out of date.

Length 44.81 m; beam 9.75 m; draft 2.6 m.

Type: SAR. MMSI: 316001434.

Date/timePositionNaut miles runAvg speedWind from/ knotsBaromVisibWave heightAir tempDewpointWater temp
2019-Aug-14 09:19N 41°55' W 082°43'2 0.5
2019-Aug-14 05:10N 41°54' W 082°46'0 0.2
2019-Aug-14 04:59N 41°54' W 082°46'20 0.6
2019-Aug-12 21:10N 41°58' W 083°13'  
2019-Aug-09 16:32N 42°05' W 083°07'2 0.7
2019-Aug-09 13:16N 42°08' W 083°07'310.2
2019-Aug-09 13:00N 42°10' W 083°08'1 2.1
2019-Aug-09 12:30N 42°11' W 083°09'3 4.8
2019-Aug-09 11:51N 42°08' W 083°11'1 3.5
2019-Aug-09 11:30N 42°09' W 083°10'3 7.0
2019-Aug-09 11:01N 42°12' W 083°09'1 2.9
2019-Aug-09 10:31N 42°14' W 083°09'3 5.0
2019-Aug-09 10:01N 42°16' W 083°07'0 0.0
2019-Aug-09 09:30N 42°16' W 083°07'0 0.0
2019-Aug-09 09:00N 42°16' W 083°07'0 0.0
2019-Aug-09 08:30N 42°16' W 083°07'0 0.0
2019-Aug-09 07:54N 42°16' W 083°07'0 0.0
2019-Aug-09 07:30N 42°16' W 083°07'0 0.0
2019-Aug-09 06:54N 42°16' W 083°07'0 0.0
2019-Aug-09 06:24N 42°16' W 083°07'0 0.0
2019-Aug-09 05:54N 42°16' W 083°07'0 0.0
2019-Aug-09 05:24N 42°16' W 083°07'0 0.0
2019-Aug-09 04:54N 42°16' W 083°07'0 0.0
2019-Aug-09 04:30N 42°16' W 083°07'0 0.0
2019-Aug-09 04:00N 42°16' W 083°07'0 0.0
2019-Aug-09 03:24N 42°16' W 083°07'0 0.0
2019-Aug-09 03:00N 42°16' W 083°07'0 0.0
2019-Aug-09 02:00N 42°16' W 083°07'0 0.0
2019-Aug-09 01:30N 42°16' W 083°07'0 0.0
2019-Aug-09 01:00N 42°16' W 083°07'0 0.0
2019-Aug-09 00:30N 42°16' W 083°07'0 0.0
2019-Aug-09 00:00N 42°16' W 083°07'0 0.0
2019-Aug-08 23:30N 42°16' W 083°07'1 2.3
2019-Aug-08 23:00N 42°17' W 083°06'5 9.8
2019-Aug-08 22:30N 42°20' W 083°01'610.1
2019-Aug-08 21:57N 42°22' W 082°54'8 9.2
2019-Aug-08 21:04N 42°27' W 082°46'1 9.0
2019-Aug-08 20:55N 42°28' W 082°45'2 0.2
2019-Aug-08 06:24N 42°30' W 082°42'3 0.5
2019-Aug-08 00:54N 42°28' W 082°45'4 9.2
2019-Aug-08 00:30N 42°26' W 082°49'5 9.0
2019-Aug-07 23:59N 42°22' W 082°53'4 8.2
2019-Aug-07 23:30N 42°20' W 082°58'4 7.4
2019-Aug-07 23:00N 42°19' W 083°02'0 0.0
2019-Aug-07 22:26N 42°19' W 083°02'0 0.0
2019-Aug-07 21:56N 42°19' W 083°02'0 0.0
2019-Aug-07 21:26N 42°19' W 083°02'0 0.0
2019-Aug-07 20:44N 42°19' W 083°02'0 0.0
2019-Aug-07 20:26N 42°19' W 083°02'0 0.0
2019-Aug-07 19:56N 42°19' W 083°02'0 0.0
2019-Aug-07 19:20N 42°19' W 083°02'0 0.0
2019-Aug-07 18:56N 42°19' W 083°02'0 0.0
2019-Aug-07 18:26N 42°19' W 083°02'0 0.0
2019-Aug-07 17:56N 42°19' W 083°02'0 0.0
2019-Aug-07 17:26N 42°19' W 083°02'0 0.0
2019-Aug-07 16:56N 42°19' W 083°02'0 0.0
2019-Aug-07 16:29N 42°19' W 083°02'0 0.0
2019-Aug-07 15:59N 42°19' W 083°02'0 0.0
2019-Aug-07 15:20N 42°19' W 083°02'0 0.0
2019-Aug-07 14:56N 42°19' W 083°02'0 0.0
2019-Aug-07 14:26N 42°19' W 083°02'0 0.0
2019-Aug-07 13:56N 42°19' W 083°02'0 0.0
2019-Aug-07 13:29N 42°19' W 083°02'0 0.0
2019-Aug-07 12:56N 42°19' W 083°02'0 0.0
2019-Aug-07 12:26N 42°19' W 083°02'0 0.0
2019-Aug-07 11:56N 42°19' W 083°02'0 0.0
2019-Aug-07 11:23N 42°19' W 083°02'0 0.0
2019-Aug-07 10:59N 42°19' W 083°02'0 0.0
2019-Aug-07 10:26N 42°19' W 083°02'0 0.0
2019-Aug-07 09:56N 42°19' W 083°02'0 0.0
2019-Aug-07 09:26N 42°19' W 083°02'0 0.0
2019-Aug-07 08:44N 42°19' W 083°02'0 0.0
2019-Aug-07 08:26N 42°19' W 083°02'0 0.0
2019-Aug-07 07:59N 42°19' W 083°02'0 0.0
2019-Aug-07 07:26N 42°19' W 083°02'0 0.0
2019-Aug-07 06:56N 42°19' W 083°02'0 0.0
2019-Aug-07 06:26N 42°19' W 083°02'0 0.0
2019-Aug-07 05:53N 42°19' W 083°02'0 0.0
2019-Aug-07 05:20N 42°19' W 083°02'0 0.0
2019-Aug-07 04:47N 42°19' W 083°02'0 0.0
2019-Aug-07 04:26N 42°19' W 083°02'0 0.0
2019-Aug-07 03:56N 42°19' W 083°02'0 0.0
2019-Aug-07 03:29N 42°19' W 083°02'0 0.0
2019-Aug-07 02:59N 42°19' W 083°02'0 0.0
2019-Aug-07 02:26N 42°19' W 083°02'0 0.0
2019-Aug-07 02:01N 42°19' W 083°02'4 7.9
2019-Aug-07 01:30N 42°20' W 082°57'510.1
2019-Aug-07 00:59N 42°24' W 082°52'5 9.3
2019-Aug-07 00:29N 42°27' W 082°47'4 7.6
2019-Aug-06 23:59N 42°29' W 082°43'8 6.9
2019-Aug-06 22:51N 42°23' W 082°49'2 4.9
2019-Aug-06 22:30N 42°22' W 082°51'2 3.1
2019-Aug-06 22:00N 42°22' W 082°53'4 7.3
2019-Aug-06 21:30N 42°20' W 082°58'4 7.5
2019-Aug-06 21:00N 42°19' W 083°03'3 6.9
2019-Aug-06 20:30N 42°17' W 083°06'4 7.3
2019-Aug-06 20:00N 42°14' W 083°08'4 7.4
2019-Aug-06 19:30N 42°10' W 083°08'53 4.7
2019-Aug-06 08:03N 41°57' W 081°58'19 8.6
2019-Aug-06 05:48N 42°04' W 081°34'  

Dump ship's entire track history